createdAt,value
2022-10-02T12:30:04.078Z,2.20
2022-10-02T12:36:56.655Z,3.00
2022-10-02T12:39:48.762Z,2.50
2022-10-02T12:42:44.942Z,3.10
2022-10-02T12:45:32.365Z,2.47
2022-10-02T12:48:00.163Z,2.65
2022-10-02T12:50:53.729Z,3.00
2022-10-02T12:53:46.007Z,3.13
2022-10-02T12:56:36.656Z,3.25
2022-10-02T12:59:29.056Z,3.05
2022-10-02T13:03:00.213Z,2.50
2022-10-02T13:06:01.887Z,2.92
2022-10-02T13:08:41.302Z,3.35
2022-10-02T13:11:07.804Z,2.60
2022-10-02T13:14:00.457Z,2.60
2022-10-02T13:17:09.716Z,2.50
2022-10-02T13:20:06.679Z,2.53
2022-10-02T13:22:52.102Z,2.65
2022-10-02T13:25:23.986Z,2.40
2022-10-02T13:28:34.734Z,2.25
2022-10-02T13:31:37.498Z,2.72
2022-10-02T13:34:38.787Z,2.20
2022-10-02T13:37:15.614Z,2.42
2022-10-02T13:39:50.116Z,2.33
2022-10-02T13:42:36.982Z,4.10
2022-10-02T13:45:15.872Z,2.38
2022-10-02T13:47:55.522Z,2.30
2022-10-02T13:51:05.156Z,2.95
2022-10-02T13:54:07.022Z,2.17
2022-10-02T13:57:11.634Z,2.08
2022-10-02T14:00:14.552Z,2.05
2022-10-02T14:02:54.143Z,2.13
2022-10-02T14:05:42.563Z,2.40
2022-10-02T14:08:32.402Z,2.90
2022-10-02T14:11:07.977Z,2.00
2022-10-02T14:14:03.680Z,2.38
2022-10-02T14:16:48.070Z,2.38
2022-10-02T14:19:28.218Z,1.67
2022-10-02T14:22:15.000Z,1.63
2022-10-02T14:25:04.309Z,1.52
2022-10-02T14:28:05.386Z,1.52
2022-10-02T14:30:42.021Z,1.50
2022-10-02T14:33:38.504Z,0.98
2022-10-02T14:36:08.181Z,1.02
2022-10-02T14:39:15.957Z,1.40
2022-10-02T14:42:05.697Z,1.20
2022-10-02T14:45:10.391Z,1.20
2022-10-02T14:47:41.724Z,1.33
2022-10-02T14:50:32.597Z,1.10
2022-10-02T14:53:27.101Z,1.88
2022-10-02T14:56:19.152Z,1.00
2022-10-02T14:59:12.705Z,1.23
2022-10-02T15:02:08.779Z,1.70
2022-10-02T15:04:55.295Z,1.17
2022-10-02T15:07:25.372Z,1.08
2022-10-02T15:10:40.818Z,1.90
2022-10-02T15:13:12.862Z,1.30
2022-10-02T15:15:45.023Z,1.50
2022-10-02T15:21:26.976Z,2.90
2022-10-02T15:23:58.358Z,2.03
2022-10-02T15:26:44.881Z,2.35
2022-10-02T15:29:36.040Z,1.63
2022-10-02T15:32:20.228Z,1.83
2022-10-02T15:35:02.501Z,1.70
2022-10-02T15:38:04.850Z,1.58
2022-10-02T15:40:47.349Z,1.80
2022-10-02T15:43:16.921Z,1.90
2022-10-02T15:46:11.602Z,1.52
2022-10-02T15:48:52.654Z,2.20
2022-10-02T15:51:44.074Z,1.90
2022-10-02T15:54:39.646Z,2.15
2022-10-02T15:57:34.823Z,1.92
2022-10-02T16:00:19.968Z,2.20
2022-10-02T16:03:05.361Z,1.67
2022-10-02T16:05:55.119Z,2.17
2022-10-02T16:08:49.599Z,2.40
2022-10-02T16:11:32.288Z,2.45
2022-10-02T16:14:09.317Z,2.10
2022-10-02T16:16:58.121Z,2.03
2022-10-02T16:19:36.987Z,1.90
2022-10-02T16:22:17.924Z,2.00
2022-10-02T16:25:06.528Z,2.03
2022-10-02T16:27:56.305Z,2.10
2022-10-02T16:30:25.149Z,2.03
2022-10-02T16:33:21.047Z,2.13
2022-10-02T16:35:48.809Z,2.05
2022-10-02T16:38:22.576Z,2.83
2022-10-02T16:40:56.925Z,3.28
2022-10-02T16:43:47.517Z,3.00
2022-10-02T16:46:21.021Z,4.93
2022-10-02T16:49:10.858Z,6.15
2022-10-02T16:51:51.804Z,3.00
2022-10-02T16:54:42.233Z,2.20
2022-10-02T16:57:17.881Z,6.18
2022-10-02T17:00:07.471Z,4.13
2022-10-02T17:02:44.585Z,2.55
2022-10-02T17:05:29.833Z,2.80
2022-10-02T17:08:03.704Z,2.72
2022-10-02T17:10:51.093Z,3.15
2022-10-02T17:13:33.233Z,2.60
2022-10-02T17:16:11.525Z,3.33
2022-10-02T17:18:46.805Z,4.50
2022-10-02T17:21:26.442Z,3.90
2022-10-02T17:24:35.059Z,2.50
2022-10-02T17:27:49.818Z,3.15
2022-10-02T17:30:24.258Z,6.68
2022-10-02T17:33:06.995Z,6.22
2022-10-02T17:35:59.447Z,5.85
2022-10-02T17:38:42.245Z,5.13
2022-10-02T17:41:17.380Z,5.45
2022-10-02T17:44:22.306Z,4.50
2022-10-02T17:46:52.102Z,3.70
2022-10-02T17:49:50.004Z,3.25
2022-10-02T17:52:44.825Z,3.47
2022-10-02T17:55:42.596Z,3.47
2022-10-02T17:58:25.009Z,3.28
2022-10-02T18:01:46.358Z,2.95
2022-10-02T18:04:21.921Z,2.58
2022-10-02T18:07:04.099Z,2.75
2022-10-02T18:10:12.527Z,2.73
2022-10-02T18:12:41.976Z,2.45
2022-10-02T18:15:17.628Z,2.55
2022-10-02T18:17:59.344Z,2.38
2022-10-02T18:20:57.277Z,2.88
2022-10-02T18:23:42.220Z,2.42
2022-10-02T18:26:42.065Z,2.63
2022-10-02T18:29:27.482Z,1.85
2022-10-02T18:32:22.075Z,1.95
2022-10-02T18:35:04.107Z,2.42
2022-10-02T18:37:57.396Z,2.65
2022-10-02T18:40:35.008Z,2.42
2022-10-02T18:43:21.109Z,2.92
2022-10-02T18:45:56.132Z,2.70
2022-10-02T18:48:49.660Z,3.13
2022-10-02T18:51:31.804Z,2.55
2022-10-02T18:54:11.521Z,2.70
2022-10-02T18:57:07.454Z,2.35
2022-10-02T18:59:53.215Z,2.70
2022-10-02T19:02:42.740Z,1.98
2022-10-02T19:05:22.485Z,2.45
2022-10-02T19:08:13.024Z,2.53
2022-10-02T19:10:43.681Z,2.30
2022-10-02T19:13:17.973Z,2.67
2022-10-02T19:15:47.740Z,2.58
2022-10-02T19:18:18.712Z,3.08
2022-10-02T19:21:15.121Z,2.58
2022-10-02T19:24:18.984Z,2.13
2022-10-02T19:26:52.127Z,2.33
2022-10-02T19:29:36.686Z,2.55
2022-10-02T19:32:16.933Z,2.10
2022-10-02T19:34:44.554Z,2.20
2022-10-02T19:37:16.204Z,3.15
2022-10-02T19:39:53.212Z,2.67
2022-10-02T19:42:28.092Z,2.45
2022-10-02T19:45:07.998Z,2.38
2022-10-02T19:47:43.278Z,2.63
2022-10-02T19:50:27.855Z,2.67
2022-10-02T19:52:58.791Z,2.47
2022-10-02T19:55:29.464Z,2.53
2022-10-02T19:58:37.104Z,2.50
2022-10-02T20:01:07.046Z,3.08
2022-10-02T20:03:36.076Z,3.10
2022-10-02T20:06:12.552Z,3.28
2022-10-02T20:08:45.216Z,3.05
2022-10-02T20:11:22.685Z,2.43
2022-10-02T20:13:59.000Z,2.80
2022-10-02T20:16:44.553Z,2.50
2022-10-02T20:19:17.805Z,2.67
2022-10-02T20:21:55.124Z,2.42
2022-10-02T20:24:34.761Z,2.80
2022-10-02T20:27:06.910Z,2.63
2022-10-02T20:29:44.622Z,3.03
2022-10-02T20:32:25.033Z,2.50
2022-10-02T20:34:59.521Z,3.13
2022-10-02T20:37:31.297Z,2.08
2022-10-02T20:40:06.173Z,2.67
2022-10-02T20:42:44.200Z,3.10
2022-10-02T20:45:13.114Z,3.10
2022-10-02T20:48:05.457Z,2.75
2022-10-02T20:50:40.369Z,2.70
2022-10-02T20:53:21.621Z,2.80
2022-10-02T20:56:20.964Z,3.00
2022-10-02T20:59:06.872Z,2.50
2022-10-02T21:01:50.070Z,2.95
2022-10-02T21:04:16.521Z,3.10
2022-10-02T21:07:06.811Z,2.88
2022-10-02T21:10:08.825Z,2.75
2022-10-02T21:13:02.959Z,2.22
2022-10-02T21:18:33.508Z,2.38
2022-10-02T21:21:09.149Z,2.72
2022-10-02T21:24:20.777Z,2.90
2022-10-02T21:27:24.621Z,2.20
2022-10-02T21:30:12.309Z,2.67
2022-10-02T21:32:55.976Z,2.83
2022-10-02T21:35:49.125Z,2.25
2022-10-02T21:38:44.044Z,2.80
2022-10-02T21:41:44.081Z,2.50
2022-10-02T21:44:41.078Z,2.15
2022-10-02T21:47:27.550Z,3.03
2022-10-02T21:50:44.793Z,2.28
2022-10-02T21:53:30.126Z,2.58
2022-10-02T21:56:37.813Z,4.65
2022-10-02T21:59:29.409Z,3.15
2022-10-02T22:02:21.007Z,2.72
2022-10-02T22:05:03.676Z,3.38
2022-10-02T22:07:39.523Z,2.58
2022-10-02T22:10:25.478Z,2.85
2022-10-02T22:13:15.242Z,2.38
2022-10-02T22:15:48.097Z,3.03
2022-10-02T22:18:41.108Z,3.33
2022-10-02T22:21:44.632Z,2.80
2022-10-02T22:24:39.892Z,2.77
2022-10-02T22:27:43.474Z,3.47
2022-10-02T22:30:29.572Z,3.50
2022-10-02T22:33:19.989Z,3.15
2022-10-02T22:36:13.845Z,2.42
2022-10-02T22:38:49.186Z,3.35
2022-10-02T22:41:16.035Z,3.05
2022-10-02T22:43:54.864Z,3.22
2022-10-02T22:46:47.528Z,3.53
2022-10-02T22:49:43.609Z,2.47
2022-10-02T22:52:22.397Z,2.45
2022-10-02T22:54:57.761Z,3.55
2022-10-02T22:57:49.809Z,2.60
2022-10-02T23:00:53.223Z,3.28
2022-10-02T23:03:37.766Z,2.92
2022-10-02T23:06:42.418Z,2.90
2022-10-02T23:09:16.068Z,2.58
2022-10-02T23:14:26.470Z,2.58
2022-10-02T23:17:10.845Z,3.00
2022-10-02T23:20:13.706Z,3.13
2022-10-02T23:22:52.303Z,2.90
2022-10-02T23:25:41.588Z,2.97
2022-10-02T23:28:17.290Z,3.47
2022-10-02T23:30:49.832Z,3.10
2022-10-02T23:33:26.968Z,3.70
2022-10-02T23:36:22.368Z,2.85
2022-10-02T23:39:12.324Z,3.10
2022-10-02T23:41:47.934Z,3.03
2022-10-02T23:44:26.669Z,3.10
2022-10-02T23:47:22.422Z,2.67
2022-10-02T23:49:53.436Z,4.15
2022-10-02T23:52:45.062Z,2.92
2022-10-02T23:55:30.821Z,3.33
2022-10-02T23:58:13.670Z,3.38
